Elizabeth — 9V8794 — position and weather

sailwx.info

Track history (hours):
 
Tides and Currents Weather Stations Pressure Air Temp Water Temp Dewpoint Dewpoint Depression Visibility Wind Speed Wind Dir Waves Ship Positions

Elizabeth

Last reported at 2015-Feb-27 17:04 UTC. Time now 2015-May-04 15:04 UTC.
Position N 48°10' W 125°21'.
Warning: this ship's position is months out of date.

Length 190 m; draft 12.3 m.

Type: Cargo ship. MMSI: 566073000.

Date/timePositionNaut miles runAvg speedWind from/ knotsBaromVisibWave heightAir tempDewpointWater temp
2015-Feb-27 17:04N 48°10' W 125°21'611.8
2015-Feb-27 16:33N 48°15' W 125°17'1212.1
2015-Feb-27 15:33N 48°26' W 125°07'1110.5
2015-Feb-27 14:33N 48°31' W 124°54'1212.4
2015-Feb-27 13:33N 48°29' W 124°35'1312.6
2015-Feb-27 12:33N 48°24' W 124°18'1313.1
2015-Feb-27 11:33N 48°19' W 123°60'1313.2
2015-Feb-27 10:33N 48°16' W 123°40'1010.4
2015-Feb-27 09:33N 48°21' W 123°26'10 9.9
2015-Feb-27 08:33N 48°25' W 123°13'1211.6
2015-Feb-27 07:33N 48°37' W 123°14'9 9.1
2015-Feb-27 06:33N 48°45' W 123°07'8 7.8
2015-Feb-27 05:33N 48°52' W 123°05'1211.7
2015-Feb-27 04:33N 49°00' W 123°19'1110.9
2015-Feb-27 03:33N 49°11' W 123°22'1110.8
2015-Feb-27 02:33N 49°19' W 123°12'3 3.0
2015-Feb-27 01:31N 49°19' W 123°07'0 0.0
2015-Feb-27 00:31N 49°19' W 123°07'0 0.0
2015-Feb-26 23:31N 49°19' W 123°07'0 0.0
2015-Feb-26 22:31N 49°19' W 123°07'0 0.0
2015-Feb-26 21:31N 49°19' W 123°07'0 0.0
2015-Feb-26 20:31N 49°19' W 123°07'0 0.0
2015-Feb-26 19:31N 49°19' W 123°07'0 0.0
2015-Feb-26 18:31N 49°19' W 123°07'0 0.0
2015-Feb-26 17:28N 49°19' W 123°07'0 0.0
2015-Feb-26 16:31N 49°19' W 123°07'0 0.0
2015-Feb-26 15:31N 49°19' W 123°07'0 0.0
2015-Feb-26 14:31N 49°19' W 123°07'0 0.0
2015-Feb-26 13:31N 49°19' W 123°07'0 0.0
2015-Feb-26 12:31N 49°19' W 123°07'0 0.0
2015-Feb-26 11:31N 49°19' W 123°07'0 0.0
2015-Feb-26 10:31N 49°19' W 123°07'0 0.0
2015-Feb-26 09:31N 49°19' W 123°07'0 0.0
2015-Feb-26 08:31N 49°19' W 123°07'0 0.0
2015-Feb-26 07:31N 49°19' W 123°07'0 0.0
2015-Feb-26 06:31N 49°19' W 123°07'0 0.0
2015-Feb-26 05:31N 49°19' W 123°07'0 0.0
2015-Feb-26 04:31N 49°19' W 123°07'0 0.0
2015-Feb-26 03:31N 49°19' W 123°07'0 0.0
2015-Feb-26 02:31N 49°19' W 123°07'0 0.0
2015-Feb-26 01:31N 49°19' W 123°07'0 0.0
2015-Feb-26 00:31N 49°19' W 123°07'0 0.0
2015-Feb-25 23:31N 49°19' W 123°07'0 0.0
2015-Feb-25 22:31N 49°19' W 123°07'0 0.0
2015-Feb-25 21:31N 49°19' W 123°07'0 0.0
2015-Feb-25 20:31N 49°19' W 123°07'0 0.0
2015-Feb-25 19:31N 49°19' W 123°07'0 0.0
2015-Feb-25 18:31N 49°19' W 123°07'0 0.0
2015-Feb-25 17:31N 49°19' W 123°07'0 0.0
2015-Feb-25 16:31N 49°19' W 123°07'0 0.0
2015-Feb-25 15:31N 49°19' W 123°07'0 0.0
2015-Feb-25 14:32N 49°19' W 123°07'1 1.0
2015-Feb-25 13:33N 49°18' W 123°06'0 0.0
2015-Feb-25 12:33N 49°18' W 123°06'0 0.0
2015-Feb-25 11:33N 49°18' W 123°06'0 0.0
2015-Feb-25 10:33N 49°18' W 123°06'0 0.1
2015-Feb-25 09:33N 49°18' W 123°06'0 0.0
2015-Feb-25 08:33N 49°18' W 123°06'0 0.1
2015-Feb-25 07:30N 49°18' W 123°06'0 0.0
2015-Feb-25 06:33N 49°18' W 123°06'0 0.1
2015-Feb-25 05:33N 49°18' W 123°06'0 0.1
2015-Feb-25 04:33N 49°18' W 123°06'0 0.1
2015-Feb-25 03:33N 49°18' W 123°05'0 0.2
2015-Feb-25 02:33N 49°18' W 123°06'0 0.1
2015-Feb-25 01:33N 49°18' W 123°06'0 0.0
2015-Feb-25 00:33N 49°18' W 123°06'0 0.0
2015-Feb-24 23:33N 49°18' W 123°06'0 0.0
2015-Feb-24 22:33N 49°18' W 123°06'0 0.0
2015-Feb-24 21:33N 49°18' W 123°06'0 0.0
2015-Feb-24 20:33N 49°18' W 123°06'0 0.1
2015-Feb-24 19:33N 49°18' W 123°06'0 0.0
2015-Feb-24 18:33N 49°18' W 123°06'0 0.0
2015-Feb-24 17:33N 49°18' W 123°06'0 0.1
2015-Feb-24 16:33N 49°18' W 123°06'0 0.2
2015-Feb-24 15:33N 49°18' W 123°05'0 0.2
2015-Feb-24 14:33N 49°18' W 123°06'0 0.0
2015-Feb-24 13:33N 49°18' W 123°06'1 0.6
2015-Feb-24 12:33N 49°18' W 123°05'5 4.5
2015-Feb-24 11:34N 49°18' W 122°58'4 3.8
2015-Feb-24 10:31N 49°17' W 122°52'0 0.0
2015-Feb-24 09:28N 49°17' W 122°52'0 0.0
2015-Feb-24 08:31N 49°17' W 122°52'0 0.0
2015-Feb-24 07:31N 49°17' W 122°52'0 0.0
2015-Feb-24 06:31N 49°17' W 122°52'0 0.0
2015-Feb-24 05:31N 49°17' W 122°52'0 0.0
2015-Feb-24 04:31N 49°17' W 122°52'0 0.0
2015-Feb-24 03:31N 49°17' W 122°52'0 0.0
2015-Feb-24 02:31N 49°17' W 122°52'0 0.0
2015-Feb-24 01:28N 49°17' W 122°52'0 0.0
2015-Feb-24 00:28N 49°17' W 122°52'0 0.0
2015-Feb-23 23:31N 49°17' W 122°52'0 0.0
2015-Feb-23 22:31N 49°17' W 122°52'0 0.0
2015-Feb-23 21:31N 49°17' W 122°52'0 0.0
2015-Feb-23 20:31N 49°17' W 122°52'0 0.0
2015-Feb-23 19:31N 49°17' W 122°52'0 0.0
2015-Feb-23 18:31N 49°17' W 122°52'0 0.0
2015-Feb-23 17:31N 49°17' W 122°52'0 0.0
2015-Feb-23 16:31N 49°17' W 122°52'0 0.0
2015-Feb-23 15:31N 49°17' W 122°52'0 0.0
2015-Feb-23 14:31N 49°17' W 122°52'0 0.0
2015-Feb-23 13:31N 49°17' W 122°52'0 0.0
2015-Feb-23 12:33N 49°17' W 122°52'2 2.3
2015-Feb-23 11:33N 49°18' W 122°55'6 5.4
2015-Feb-23 10:32N 49°18' W 123°04'0 0.0
2015-Feb-23 09:32N 49°18' W 123°04'0 0.0
2015-Feb-23 08:32N 49°18' W 123°04'0 0.0
2015-Feb-23 07:32N 49°18' W 123°04'0 0.0
2015-Feb-23 06:32N 49°18' W 123°04'0 0.0
2015-Feb-23 05:32N 49°18' W 123°04'0 0.1
2015-Feb-23 04:32N 49°18' W 123°04'0 0.0
2015-Feb-23 03:32N 49°18' W 123°04'0 0.0
2015-Feb-23 02:29N 49°18' W 123°04'0 0.0
2015-Feb-23 01:32N 49°18' W 123°04'0 0.0
2015-Feb-23 00:32N 49°18' W 123°04'0 0.1
2015-Feb-22 23:32N 49°18' W 123°04'0 0.1
2015-Feb-22 22:32N 49°18' W 123°04'0 0.1
2015-Feb-22 21:32N 49°18' W 123°04'0 0.1
2015-Feb-22 20:32N 49°18' W 123°04'0 0.0
2015-Feb-22 19:32N 49°18' W 123°04'0 0.0
2015-Feb-22 18:32N 49°18' W 123°04'0 0.0
2015-Feb-22 17:29N 49°18' W 123°04'0 0.0
2015-Feb-22 16:29N 49°18' W 123°04'0 0.1
2015-Feb-22 15:32N 49°18' W 123°04'0 0.1
2015-Feb-22 14:32N 49°18' W 123°04'0 0.0
2015-Feb-22 13:32N 49°18' W 123°04'0 0.1
2015-Feb-22 12:32N 49°18' W 123°04'0 0.1
2015-Feb-22 11:32N 49°18' W 123°04'0 0.0
2015-Feb-22 10:32N 49°18' W 123°04'0 0.0
2015-Feb-22 09:32N 49°18' W 123°04'0 0.0
2015-Feb-22 08:29N 49°18' W 123°04'0 0.0
2015-Feb-22 07:32N 49°18' W 123°04'0 0.0
2015-Feb-22 06:29N 49°18' W 123°04'0 0.0
2015-Feb-22 05:32N 49°18' W 123°04'0 0.0
2015-Feb-22 04:32N 49°18' W 123°04'0 0.1
2015-Feb-22 03:32N 49°18' W 123°04'0 0.2
2015-Feb-22 02:32N 49°18' W 123°04'0 0.0
2015-Feb-22 01:32N 49°18' W 123°04'0 0.0
2015-Feb-22 00:32N 49°18' W 123°04'0 0.0
2015-Feb-21 23:32N 49°18' W 123°04'0 0.0
2015-Feb-21 22:32N 49°18' W 123°04'0 0.1
2015-Feb-21 21:32N 49°18' W 123°04'0 0.1
2015-Feb-21 20:32N 49°18' W 123°04'0 0.0
2015-Feb-21 19:32N 49°18' W 123°04'0 0.0
2015-Feb-21 18:32N 49°18' W 123°04'0 0.0
2015-Feb-21 17:32N 49°18' W 123°04'0 0.1
2015-Feb-21 16:33N 49°18' W 123°04'8 8.5
2015-Feb-21 15:33N 49°18' W 123°17'1211.9
2015-Feb-21 14:33N 49°06' W 123°20'1312.6
2015-Feb-21 13:33N 48°56' W 123°09'1111.4
2015-Feb-21 12:33N 48°45' W 123°04'1212.2
2015-Feb-21 11:33N 48°35' W 123°13'1313.0
2015-Feb-21 10:33N 48°22' W 123°18'7 5.6
2015-Feb-21 09:22N 48°18' W 123°26'4 4.5
2015-Feb-21 08:33N 48°15' W 123°29'5 5.5
2015-Feb-21 07:33N 48°14' W 123°37'1110.6
2015-Feb-21 06:29N 48°14' W 123°54'1311.4
2015-Feb-21 05:20N 48°19' W 124°12'810.5
2015-Feb-21 04:32N 48°23' W 124°24'2711.5
2015-Feb-21 02:09N 48°29' W 125°04'1113.9
2015-Feb-21 01:23N 48°27' W 125°20'1113.5
2015-Feb-21 00:33N 48°26' W 125°37'1413.5
2015-Feb-20 23:33N 48°24' W 125°57'1212.0
2015-Feb-20 22:33N 48°23' W 126°15'1413.4
2015-Feb-20 21:29N 48°23' W 126°37'  
Track history (hours):
 
Tides and Currents Weather Stations Pressure Air Temp Water Temp Dewpoint Dewpoint Depression Visibility Wind Speed Wind Dir Waves Ship Positions

Elizabeth

Last reported at 2015-Feb-27 17:04 UTC. Time now 2015-May-04 15:04 UTC.
Position N 48°10' W 125°21'.
Warning: this ship's position is months out of date.

Length 190 m; draft 12.3 m.

Type: Cargo ship. MMSI: 566073000.

Date/timePositionNaut miles runAvg speedWind from/ knotsBaromVisibWave heightAir tempDewpointWater temp
2015-Feb-27 17:04N 48°10' W 125°21'611.8
2015-Feb-27 16:33N 48°15' W 125°17'1212.1
2015-Feb-27 15:33N 48°26' W 125°07'1110.5
2015-Feb-27 14:33N 48°31' W 124°54'1212.4
2015-Feb-27 13:33N 48°29' W 124°35'1312.6
2015-Feb-27 12:33N 48°24' W 124°18'1313.1
2015-Feb-27 11:33N 48°19' W 123°60'1313.2
2015-Feb-27 10:33N 48°16' W 123°40'1010.4
2015-Feb-27 09:33N 48°21' W 123°26'10 9.9
2015-Feb-27 08:33N 48°25' W 123°13'1211.6
2015-Feb-27 07:33N 48°37' W 123°14'9 9.1
2015-Feb-27 06:33N 48°45' W 123°07'8 7.8
2015-Feb-27 05:33N 48°52' W 123°05'1211.7
2015-Feb-27 04:33N 49°00' W 123°19'1110.9
2015-Feb-27 03:33N 49°11' W 123°22'1110.8
2015-Feb-27 02:33N 49°19' W 123°12'3 3.0
2015-Feb-27 01:31N 49°19' W 123°07'0 0.0
2015-Feb-27 00:31N 49°19' W 123°07'0 0.0
2015-Feb-26 23:31N 49°19' W 123°07'0 0.0
2015-Feb-26 22:31N 49°19' W 123°07'0 0.0
2015-Feb-26 21:31N 49°19' W 123°07'0 0.0
2015-Feb-26 20:31N 49°19' W 123°07'0 0.0
2015-Feb-26 19:31N 49°19' W 123°07'0 0.0
2015-Feb-26 18:31N 49°19' W 123°07'0 0.0
2015-Feb-26 17:28N 49°19' W 123°07'0 0.0
2015-Feb-26 16:31N 49°19' W 123°07'0 0.0
2015-Feb-26 15:31N 49°19' W 123°07'0 0.0
2015-Feb-26 14:31N 49°19' W 123°07'0 0.0
2015-Feb-26 13:31N 49°19' W 123°07'0 0.0
2015-Feb-26 12:31N 49°19' W 123°07'0 0.0
2015-Feb-26 11:31N 49°19' W 123°07'0 0.0
2015-Feb-26 10:31N 49°19' W 123°07'0 0.0
2015-Feb-26 09:31N 49°19' W 123°07'0 0.0
2015-Feb-26 08:31N 49°19' W 123°07'0 0.0
2015-Feb-26 07:31N 49°19' W 123°07'0 0.0
2015-Feb-26 06:31N 49°19' W 123°07'0 0.0
2015-Feb-26 05:31N 49°19' W 123°07'0 0.0
2015-Feb-26 04:31N 49°19' W 123°07'0 0.0
2015-Feb-26 03:31N 49°19' W 123°07'0 0.0
2015-Feb-26 02:31N 49°19' W 123°07'0 0.0
2015-Feb-26 01:31N 49°19' W 123°07'0 0.0
2015-Feb-26 00:31N 49°19' W 123°07'0 0.0
2015-Feb-25 23:31N 49°19' W 123°07'0 0.0
2015-Feb-25 22:31N 49°19' W 123°07'0 0.0
2015-Feb-25 21:31N 49°19' W 123°07'0 0.0
2015-Feb-25 20:31N 49°19' W 123°07'0 0.0
2015-Feb-25 19:31N 49°19' W 123°07'0 0.0
2015-Feb-25 18:31N 49°19' W 123°07'0 0.0
2015-Feb-25 17:31N 49°19' W 123°07'0 0.0
2015-Feb-25 16:31N 49°19' W 123°07'0 0.0
2015-Feb-25 15:31N 49°19' W 123°07'0 0.0
2015-Feb-25 14:32N 49°19' W 123°07'1 1.0
2015-Feb-25 13:33N 49°18' W 123°06'0 0.0
2015-Feb-25 12:33N 49°18' W 123°06'0 0.0
2015-Feb-25 11:33N 49°18' W 123°06'0 0.0
2015-Feb-25 10:33N 49°18' W 123°06'0 0.1
2015-Feb-25 09:33N 49°18' W 123°06'0 0.0
2015-Feb-25 08:33N 49°18' W 123°06'0 0.1
2015-Feb-25 07:30N 49°18' W 123°06'0 0.0
2015-Feb-25 06:33N 49°18' W 123°06'0 0.1
2015-Feb-25 05:33N 49°18' W 123°06'0 0.1
2015-Feb-25 04:33N 49°18' W 123°06'0 0.1
2015-Feb-25 03:33N 49°18' W 123°05'0 0.2
2015-Feb-25 02:33N 49°18' W 123°06'0 0.1
2015-Feb-25 01:33N 49°18' W 123°06'0 0.0
2015-Feb-25 00:33N 49°18' W 123°06'0 0.0
2015-Feb-24 23:33N 49°18' W 123°06'0 0.0
2015-Feb-24 22:33N 49°18' W 123°06'0 0.0
2015-Feb-24 21:33N 49°18' W 123°06'0 0.0
2015-Feb-24 20:33N 49°18' W 123°06'0 0.1
2015-Feb-24 19:33N 49°18' W 123°06'0 0.0
2015-Feb-24 18:33N 49°18' W 123°06'0 0.0
2015-Feb-24 17:33N 49°18' W 123°06'0 0.1
2015-Feb-24 16:33N 49°18' W 123°06'0 0.2
2015-Feb-24 15:33N 49°18' W 123°05'0 0.2
2015-Feb-24 14:33N 49°18' W 123°06'0 0.0
2015-Feb-24 13:33N 49°18' W 123°06'1 0.6
2015-Feb-24 12:33N 49°18' W 123°05'5 4.5
2015-Feb-24 11:34N 49°18' W 122°58'4 3.8
2015-Feb-24 10:31N 49°17' W 122°52'0 0.0
2015-Feb-24 09:28N 49°17' W 122°52'0 0.0
2015-Feb-24 08:31N 49°17' W 122°52'0 0.0
2015-Feb-24 07:31N 49°17' W 122°52'0 0.0
2015-Feb-24 06:31N 49°17' W 122°52'0 0.0
2015-Feb-24 05:31N 49°17' W 122°52'0 0.0
2015-Feb-24 04:31N 49°17' W 122°52'0 0.0
2015-Feb-24 03:31N 49°17' W 122°52'0 0.0
2015-Feb-24 02:31N 49°17' W 122°52'0 0.0
2015-Feb-24 01:28N 49°17' W 122°52'0 0.0
2015-Feb-24 00:28N 49°17' W 122°52'0 0.0
2015-Feb-23 23:31N 49°17' W 122°52'0 0.0
2015-Feb-23 22:31N 49°17' W 122°52'0 0.0
2015-Feb-23 21:31N 49°17' W 122°52'0 0.0
2015-Feb-23 20:31N 49°17' W 122°52'0 0.0
2015-Feb-23 19:31N 49°17' W 122°52'0 0.0
2015-Feb-23 18:31N 49°17' W 122°52'0 0.0
2015-Feb-23 17:31N 49°17' W 122°52'0 0.0
2015-Feb-23 16:31N 49°17' W 122°52'0 0.0
2015-Feb-23 15:31N 49°17' W 122°52'0 0.0
2015-Feb-23 14:31N 49°17' W 122°52'0 0.0
2015-Feb-23 13:31N 49°17' W 122°52'0 0.0
2015-Feb-23 12:33N 49°17' W 122°52'2 2.3
2015-Feb-23 11:33N 49°18' W 122°55'6 5.4
2015-Feb-23 10:32N 49°18' W 123°04'0 0.0
2015-Feb-23 09:32N 49°18' W 123°04'0 0.0
2015-Feb-23 08:32N 49°18' W 123°04'0 0.0
2015-Feb-23 07:32N 49°18' W 123°04'0 0.0
2015-Feb-23 06:32N 49°18' W 123°04'0 0.0
2015-Feb-23 05:32N 49°18' W 123°04'0 0.1
2015-Feb-23 04:32N 49°18' W 123°04'0 0.0
2015-Feb-23 03:32N 49°18' W 123°04'0 0.0
2015-Feb-23 02:29N 49°18' W 123°04'0 0.0
2015-Feb-23 01:32N 49°18' W 123°04'0 0.0
2015-Feb-23 00:32N 49°18' W 123°04'0 0.1
2015-Feb-22 23:32N 49°18' W 123°04'0 0.1
2015-Feb-22 22:32N 49°18' W 123°04'0 0.1
2015-Feb-22 21:32N 49°18' W 123°04'0 0.1
2015-Feb-22 20:32N 49°18' W 123°04'0 0.0
2015-Feb-22 19:32N 49°18' W 123°04'0 0.0
2015-Feb-22 18:32N 49°18' W 123°04'0 0.0
2015-Feb-22 17:29N 49°18' W 123°04'0 0.0
2015-Feb-22 16:29N 49°18' W 123°04'0 0.1
2015-Feb-22 15:32N 49°18' W 123°04'0 0.1
2015-Feb-22 14:32N 49°18' W 123°04'0 0.0
2015-Feb-22 13:32N 49°18' W 123°04'0 0.1
2015-Feb-22 12:32N 49°18' W 123°04'0 0.1
2015-Feb-22 11:32N 49°18' W 123°04'0 0.0
2015-Feb-22 10:32N 49°18' W 123°04'0 0.0
2015-Feb-22 09:32N 49°18' W 123°04'0 0.0
2015-Feb-22 08:29N 49°18' W 123°04'0 0.0
2015-Feb-22 07:32N 49°18' W 123°04'0 0.0
2015-Feb-22 06:29N 49°18' W 123°04'0 0.0
2015-Feb-22 05:32N 49°18' W 123°04'0 0.0
2015-Feb-22 04:32N 49°18' W 123°04'0 0.1
2015-Feb-22 03:32N 49°18' W 123°04'0 0.2
2015-Feb-22 02:32N 49°18' W 123°04'0 0.0
2015-Feb-22 01:32N 49°18' W 123°04'0 0.0
2015-Feb-22 00:32N 49°18' W 123°04'0 0.0
2015-Feb-21 23:32N 49°18' W 123°04'0 0.0
2015-Feb-21 22:32N 49°18' W 123°04'0 0.1
2015-Feb-21 21:32N 49°18' W 123°04'0 0.1
2015-Feb-21 20:32N 49°18' W 123°04'0 0.0
2015-Feb-21 19:32N 49°18' W 123°04'0 0.0
2015-Feb-21 18:32N 49°18' W 123°04'0 0.0
2015-Feb-21 17:32N 49°18' W 123°04'0 0.1
2015-Feb-21 16:33N 49°18' W 123°04'8 8.5
2015-Feb-21 15:33N 49°18' W 123°17'1211.9
2015-Feb-21 14:33N 49°06' W 123°20'1312.6
2015-Feb-21 13:33N 48°56' W 123°09'1111.4
2015-Feb-21 12:33N 48°45' W 123°04'1212.2
2015-Feb-21 11:33N 48°35' W 123°13'1313.0
2015-Feb-21 10:33N 48°22' W 123°18'7 5.6
2015-Feb-21 09:22N 48°18' W 123°26'4 4.5
2015-Feb-21 08:33N 48°15' W 123°29'5 5.5
2015-Feb-21 07:33N 48°14' W 123°37'1110.6
2015-Feb-21 06:29N 48°14' W 123°54'1311.4
2015-Feb-21 05:20N 48°19' W 124°12'810.5
2015-Feb-21 04:32N 48°23' W 124°24'2711.5
2015-Feb-21 02:09N 48°29' W 125°04'1113.9
2015-Feb-21 01:23N 48°27' W 125°20'1113.5
2015-Feb-21 00:33N 48°26' W 125°37'1413.5
2015-Feb-20 23:33N 48°24' W 125°57'1212.0
2015-Feb-20 22:33N 48°23' W 126°15'1413.4
2015-Feb-20 21:29N 48°23' W 126°37'  

Dump ship's entire track history